Colmar, PA (18915)

2:51 PM EDT on May 22, 2015 (GMT -0400)
Cambridge Knoll | | Change Station
CLOSE
Current Station
Personal Weather Station
Location: Lansdale, PA
Elevation: 420 ft
Nearby Weather Stations

Elev 420 ft 40.24 °N, 75.27 °W | Updated 2 seconds ago

Clear
Clear
74.3 °F
Feels Like 77 °F
N
1.8
Wind Variable Wind from WSW
Gusts 10.2 mph

Today
High -- | Low -- °F
--% Chance of Precip.
Yesterday
High -- | Low -- °F
Precip. -- in
5:39 AM 8:16 PM
Waxing Crescent, 23% visible
Pressure 29.97 in
Visibility 10.0 miles
Clouds Mostly Cloudy 6500 ft
Mostly Cloudy 8000 ft
Heat Index 77 °F
Dew Point 50 °F
Humidity 43%
Rainfall 0.00 in
Snow Depth Not available.
UV 6 out of 12
Pollen 7.50 out of 12
Air Quality Not available.
Flu Activity Sporadic
METAR KDYL 221754Z AUTO 28011G24KT 10SM BKN065 BKN080 21/04 A2997 RMK AO2 SLP148 T02060044 10222 20122 58001

More Conditions Fewer Conditions

Pressure 29.97 in
Visibility 10.0 miles
Clouds Mostly Cloudy 6500 ft
Mostly Cloudy 8000 ft
Heat Index 77 °F
Dew Point 50 °F
Humidity 43%
Rainfall 0.00 in
Snow Depth Not available.
UV 6 out of 12
Pollen 7.50 out of 12
Air Quality Not available.
Flu Activity Sporadic
METAR KDYL 221754Z AUTO 28011G24KT 10SM BKN065 BKN080 21/04 A2997 RMK AO2 SLP148 T02060044 10222 20122 58001

More Conditions Fewer Conditions

Nowcast | as of 2:29 PM EDT on May 22, 2015

Scattered light rain showers are possible through the afternoon hours. Many areas won't see any precipitation at all...and those areas that do get some rain should receive less than one-tenth of an inch.

×

10-Day Weather Forecast

Almanac

Astronomy

May. 22, 2015 Rise Set
Actual Time
Civil Twilight
Nautical Twilight
Astronomical Twilight
Moon
Length of Visible Light
Length of Day
Tomorrow will be .
, % of the Moon is Illuminated

Today's Extremes

State Highs State Lows

Community

WunderPhotos

Upload Photos

1,823,276 photos uploaded!

WunderBlogs® & News

Nearby

Air Quality

  Air Quality AQ Index Pollutant
Not available.

Snow Depth

Station Depth Elevation

Earthquake Activity

City Distance Mag. Time & Date
Minimum magnitude displayed is 2.5.

Coastal Water Temperatures

Place Temperature

Stations

Nearby Weather Stations

Station Location Temp. Windchill Dew Point Humidity Wind Precip. Elev Updated Type